Terminal Aerodrome Forecast
Issued by NWS

Home | Current Version | Previous Version | Text Only | Print | Product List | Glossary On
Versions: 1 2 3 4 5 6 7 8 9 10 11 12 13 14 15 16 17 18 19 20 21 22 23 24 25
000
FTUS41 KOKX 031122
TAFSWF
TAF
KSWF 031122Z 0312/0418 VRB02KT 6SM BR SCT008 BKN015
     FM031300 07004KT P6SM FEW015 BKN250
     FM031700 10006KT P6SM SCT250
     FM032100 13006KT P6SM SCT250
     FM040600 VRB02KT 6SM BR FEW005 SCT250
     FM041400 10006KT P6SM SCT250
      AMD NOT SKED=

USA.gov is the U.S. government's official web portal to all federal, state and local government web resources and services.